createdAt,value
2023-03-03T00:01:29.712Z,4.30
2023-03-03T00:03:56.749Z,4.00
2023-03-03T00:06:24.897Z,5.25
2023-03-03T00:08:52.203Z,4.47
2023-03-03T00:11:19.161Z,4.65
2023-03-03T00:13:54.676Z,5.45
2023-03-03T00:16:26.026Z,5.43
2023-03-03T00:18:54.335Z,4.57
2023-03-03T00:21:29.254Z,6.45
2023-03-03T00:24:14.120Z,6.82
2023-03-03T00:26:44.369Z,6.70
2023-03-03T00:29:31.741Z,8.68
2023-03-03T00:32:22.972Z,6.40
2023-03-03T00:34:50.762Z,5.13
2023-03-03T00:37:34.849Z,5.90
2023-03-03T00:40:24.761Z,5.18
2023-03-03T00:42:57.678Z,5.13
2023-03-03T00:45:43.630Z,4.97
2023-03-03T00:48:29.866Z,5.72
2023-03-03T00:51:03.713Z,8.48
2023-03-03T00:53:30.933Z,5.70
2023-03-03T00:55:58.608Z,3.17
2023-03-03T00:58:25.733Z,5.25
2023-03-03T01:00:55.052Z,6.45
2023-03-03T01:03:24.747Z,6.40
2023-03-03T01:05:53.161Z,5.53
2023-03-03T01:08:21.555Z,6.22
2023-03-03T01:10:57.093Z,6.50
2023-03-03T01:13:28.490Z,4.57
2023-03-03T01:15:55.204Z,5.32
2023-03-03T01:18:22.030Z,5.57
2023-03-03T01:20:48.886Z,5.57
2023-03-03T01:23:15.622Z,5.13
2023-03-03T01:25:42.656Z,6.85
2023-03-03T01:28:09.564Z,4.93
2023-03-03T01:30:36.549Z,5.38
2023-03-03T01:33:03.212Z,5.30
2023-03-03T01:35:30.295Z,3.83
2023-03-03T01:37:58.124Z,7.70
2023-03-03T01:40:30.851Z,4.90
2023-03-03T01:43:00.044Z,5.82
2023-03-03T01:45:26.841Z,7.18
2023-03-03T01:48:13.891Z,4.70
2023-03-03T01:50:51.758Z,6.20
2023-03-03T01:53:22.410Z,6.20
2023-03-03T01:55:52.148Z,6.55
2023-03-03T01:58:33.124Z,5.93
2023-03-03T02:01:05.559Z,8.95
2023-03-03T02:03:32.538Z,7.15
2023-03-03T02:06:04.726Z,7.32
2023-03-03T02:09:01.828Z,4.68
2023-03-03T02:11:31.461Z,5.65
2023-03-03T02:13:58.187Z,8.57
2023-03-03T02:16:25.466Z,6.47
2023-03-03T02:18:52.185Z,4.53
2023-03-03T02:21:23.950Z,5.90
2023-03-03T02:24:18.018Z,7.05
2023-03-03T02:26:46.096Z,7.68
2023-03-03T02:29:13.095Z,5.10
2023-03-03T02:31:39.934Z,4.03
2023-03-03T02:34:06.663Z,4.97
2023-03-03T02:36:36.627Z,5.80
2023-03-03T02:39:14.480Z,7.85
2023-03-03T02:41:46.919Z,4.30
2023-03-03T02:44:16.193Z,7.03
2023-03-03T02:46:45.376Z,5.78
2023-03-03T02:49:14.428Z,4.80
2023-03-03T02:51:41.764Z,4.97
2023-03-03T02:54:10.466Z,2.60
2023-03-03T02:56:37.569Z,4.38
2023-03-03T02:59:05.385Z,4.35
2023-03-03T03:01:37.230Z,3.92
2023-03-03T03:04:09.384Z,4.28
2023-03-03T03:06:36.220Z,4.68
2023-03-03T03:09:04.183Z,5.22
2023-03-03T03:11:31.012Z,4.82
2023-03-03T03:13:57.633Z,5.88
2023-03-03T03:16:24.534Z,4.53
2023-03-03T03:18:51.806Z,6.05
2023-03-03T03:21:18.938Z,4.25
2023-03-03T03:23:45.530Z,5.00
2023-03-03T03:26:12.574Z,5.13
2023-03-03T03:28:39.676Z,4.45
2023-03-03T03:31:07.732Z,5.32
2023-03-03T03:33:34.716Z,4.28
2023-03-03T03:36:01.789Z,2.65
2023-03-03T03:38:29.829Z,3.95
2023-03-03T03:40:56.654Z,5.18
2023-03-03T03:43:23.493Z,4.45
2023-03-03T03:45:50.326Z,4.57
2023-03-03T03:48:17.804Z,6.05
2023-03-03T03:50:44.464Z,3.17
2023-03-03T03:53:11.056Z,2.35
2023-03-03T03:55:37.852Z,3.15
2023-03-03T03:58:04.686Z,4.65
2023-03-03T04:00:31.654Z,2.95
2023-03-03T04:02:58.589Z,4.47
2023-03-03T04:05:25.462Z,6.10
2023-03-03T04:07:52.167Z,3.15
2023-03-03T04:10:19.433Z,6.05
2023-03-03T04:12:46.272Z,4.85
2023-03-03T04:15:15.217Z,3.47
2023-03-03T04:17:42.265Z,4.05
2023-03-03T04:20:11.299Z,3.72
2023-03-03T04:22:38.011Z,5.30
2023-03-03T04:25:05.529Z,3.65
2023-03-03T04:27:33.785Z,3.67
2023-03-03T04:30:00.393Z,4.30
2023-03-03T04:32:27.167Z,4.32
2023-03-03T04:35:05.620Z,4.78
2023-03-03T04:37:34.071Z,5.40
2023-03-03T04:40:00.693Z,4.68
2023-03-03T04:42:28.162Z,5.45
2023-03-03T04:44:54.953Z,4.15
2023-03-03T04:47:21.767Z,5.53
2023-03-03T04:49:48.396Z,3.40
2023-03-03T04:52:15.215Z,3.05
2023-03-03T04:54:41.903Z,3.17
2023-03-03T04:57:09.577Z,4.90
2023-03-03T04:59:36.574Z,3.67
2023-03-03T05:02:05.502Z,5.78
2023-03-03T05:04:32.339Z,5.07
2023-03-03T05:06:59.119Z,3.30
2023-03-03T05:09:25.953Z,3.63
2023-03-03T05:11:52.658Z,3.63
2023-03-03T05:14:19.326Z,2.60
2023-03-03T05:16:46.185Z,4.68
2023-03-03T05:19:12.860Z,3.97
2023-03-03T05:21:42.856Z,2.10
2023-03-03T05:24:11.818Z,6.38
2023-03-03T05:26:40.181Z,3.00
2023-03-03T05:29:07.932Z,5.70
2023-03-03T05:31:34.809Z,2.40
2023-03-03T05:34:02.057Z,4.88
2023-03-03T05:36:30.383Z,5.32
2023-03-03T05:38:57.329Z,3.80
2023-03-03T05:41:24.170Z,3.97
2023-03-03T05:43:50.768Z,3.63
2023-03-03T05:46:20.216Z,5.57
2023-03-03T05:48:47.069Z,4.43
2023-03-03T05:51:13.663Z,3.67
2023-03-03T05:53:40.733Z,3.78
2023-03-03T05:56:07.908Z,5.65
2023-03-03T05:58:34.610Z,4.65
2023-03-03T06:01:01.491Z,3.22
2023-03-03T06:03:28.319Z,8.93
2023-03-03T06:05:54.867Z,6.45
2023-03-03T06:08:21.904Z,4.13
2023-03-03T06:10:48.526Z,6.15
2023-03-03T06:13:15.185Z,1.63
2023-03-03T06:15:42.024Z,3.67
2023-03-03T06:18:09.005Z,2.45
2023-03-03T06:20:38.570Z,3.33
2023-03-03T06:23:05.565Z,2.70
2023-03-03T06:25:32.412Z,3.17
2023-03-03T06:27:59.026Z,2.03
2023-03-03T06:30:26.939Z,2.80
2023-03-03T06:32:53.936Z,4.68
2023-03-03T06:35:21.133Z,2.33
2023-03-03T06:37:50.937Z,5.05
2023-03-03T06:40:19.414Z,4.40
2023-03-03T06:42:49.071Z,6.07
2023-03-03T06:45:15.882Z,4.35
2023-03-03T06:47:42.567Z,2.20
2023-03-03T06:50:11.872Z,6.25
2023-03-03T06:52:39.133Z,3.63
2023-03-03T06:55:17.076Z,2.92
2023-03-03T06:57:44.324Z,5.40
2023-03-03T07:00:20.986Z,3.63
2023-03-03T07:02:54.252Z,3.22
2023-03-03T07:05:22.365Z,4.95
2023-03-03T07:07:50.054Z,3.13
2023-03-03T07:10:28.033Z,3.47
2023-03-03T07:13:00.699Z,3.83
2023-03-03T07:15:38.321Z,2.72
2023-03-03T07:18:22.876Z,2.80
2023-03-03T07:20:51.723Z,4.07
2023-03-03T07:23:24.930Z,2.17
2023-03-03T07:25:54.624Z,2.15
2023-03-03T07:28:27.520Z,3.13
2023-03-03T07:30:55.877Z,2.67
2023-03-03T07:33:29.534Z,2.50
2023-03-03T07:35:58.598Z,2.88
2023-03-03T07:38:36.177Z,2.30
2023-03-03T07:41:06.101Z,3.60
2023-03-03T07:43:40.682Z,3.33
2023-03-03T07:46:10.495Z,4.15
2023-03-03T07:48:40.962Z,2.00
2023-03-03T07:51:29.503Z,3.55
2023-03-03T07:54:28.691Z,2.90
2023-03-03T07:57:24.343Z,2.22
2023-03-03T08:00:16.756Z,4.20
2023-03-03T08:03:04.800Z,2.40
2023-03-03T08:05:38.208Z,3.63
2023-03-03T08:08:22.950Z,2.80
2023-03-03T08:11:02.546Z,3.22
2023-03-03T08:13:44.273Z,2.65
2023-03-03T08:16:10.887Z,2.58
2023-03-03T08:18:50.921Z,3.00
2023-03-03T08:21:25.257Z,2.83
2023-03-03T08:23:53.782Z,2.05
2023-03-03T08:26:22.407Z,1.52
2023-03-03T08:28:49.594Z,1.67
2023-03-03T08:31:31.134Z,2.42
2023-03-03T08:34:07.657Z,2.33
2023-03-03T08:36:35.131Z,2.80
2023-03-03T08:39:02.644Z,1.27
2023-03-03T08:41:29.297Z,2.35
2023-03-03T08:43:56.079Z,1.08
2023-03-03T08:46:22.986Z,1.75
2023-03-03T08:48:50.161Z,1.65
2023-03-03T08:51:17.431Z,1.23
2023-03-03T08:53:44.045Z,1.40
2023-03-03T08:56:10.798Z,1.88
2023-03-03T08:58:38.319Z,3.15
2023-03-03T09:01:08.873Z,1.52
2023-03-03T09:03:35.428Z,2.05
2023-03-03T09:06:02.099Z,1.25
2023-03-03T09:08:28.895Z,1.30
2023-03-03T09:10:55.439Z,2.15
2023-03-03T09:13:22.126Z,2.42
2023-03-03T09:15:50.294Z,1.40
2023-03-03T09:18:25.325Z,1.70
2023-03-03T09:20:53.829Z,1.77
2023-03-03T09:23:31.669Z,1.10
2023-03-03T09:26:28.444Z,2.63
2023-03-03T09:29:18.441Z,2.58
2023-03-03T09:31:51.700Z,1.77
2023-03-03T09:34:42.468Z,1.73
2023-03-03T09:37:37.515Z,2.45
2023-03-03T09:40:35.688Z,2.30
2023-03-03T09:43:15.606Z,2.05
2023-03-03T09:45:56.952Z,2.45
2023-03-03T09:49:11.541Z,2.58
2023-03-03T09:51:46.223Z,2.20
2023-03-03T09:54:33.150Z,3.13
2023-03-03T09:57:14.524Z,2.00
2023-03-03T09:59:52.814Z,1.88
2023-03-03T10:02:44.465Z,2.50
2023-03-03T10:05:45.347Z,1.35
2023-03-03T10:08:42.422Z,1.58
2023-03-03T10:11:23.170Z,1.42
2023-03-03T10:14:10.405Z,1.02
2023-03-03T10:17:12.746Z,2.00
2023-03-03T10:19:59.624Z,1.45
2023-03-03T10:22:54.965Z,2.00
2023-03-03T10:25:55.497Z,1.20
2023-03-03T10:28:30.559Z,1.42
2023-03-03T10:31:10.687Z,1.75
2023-03-03T10:34:17.464Z,1.90
2023-03-03T10:36:57.049Z,1.95
2023-03-03T10:39:53.411Z,2.85
2023-03-03T10:42:26.092Z,2.45
2023-03-03T10:45:07.731Z,3.40
2023-03-03T10:48:09.931Z,2.17
2023-03-03T10:51:01.498Z,2.75
2023-03-03T10:53:45.126Z,2.60
2023-03-03T10:56:40.305Z,2.05
2023-03-03T10:59:36.503Z,3.22
2023-03-03T11:02:14.950Z,2.22
2023-03-03T11:04:45.274Z,3.25
2023-03-03T11:07:40.730Z,2.55
2023-03-03T11:10:33.797Z,3.17
2023-03-03T11:13:24.047Z,1.92
2023-03-03T11:16:09.887Z,2.65
2023-03-03T11:19:13.962Z,2.78
2023-03-03T11:22:12.220Z,2.78
2023-03-03T11:24:57.468Z,3.33
2023-03-03T11:27:45.959Z,2.72
2023-03-03T11:30:35.873Z,4.18
2023-03-03T11:33:22.131Z,2.03
2023-03-03T11:36:02.961Z,3.35
2023-03-03T11:38:51.294Z,2.50
2023-03-03T11:41:42.648Z,3.20
2023-03-03T11:44:27.795Z,2.67
2023-03-03T11:47:00.434Z,1.95
2023-03-03T11:49:35.198Z,2.53
2023-03-03T11:52:20.878Z,2.78
2023-03-03T11:55:09.467Z,2.85
2023-03-03T11:57:40.175Z,3.58
2023-03-03T12:00:34.746Z,1.90
2023-03-03T12:03:18.483Z,3.45
2023-03-03T12:05:57.557Z,3.78
2023-03-03T12:08:48.042Z,2.28
2023-03-03T12:11:28.036Z,3.63
2023-03-03T12:14:38.921Z,3.72
2023-03-03T12:17:26.576Z,3.60
2023-03-03T12:20:25.291Z,3.28
2023-03-03T12:23:21.556Z,5.20
2023-03-03T12:26:01.702Z,3.67
2023-03-03T12:28:38.533Z,3.03
2023-03-03T12:31:28.410Z,2.55
2023-03-03T12:34:05.118Z,3.35
2023-03-03T12:36:41.654Z,2.22
2023-03-03T12:39:34.103Z,2.80
2023-03-03T12:42:24.984Z,2.53
2023-03-03T12:45:07.175Z,2.25
2023-03-03T12:47:40.034Z,3.13
2023-03-03T12:50:09.381Z,2.15
2023-03-03T12:53:12.488Z,1.50
2023-03-03T12:56:06.742Z,1.40
2023-03-03T12:58:36.689Z,2.17
2023-03-03T13:01:16.396Z,1.83
2023-03-03T13:04:00.179Z,1.42
2023-03-03T13:06:40.013Z,2.00
2023-03-03T13:09:19.659Z,1.33
2023-03-03T13:12:01.985Z,1.85
2023-03-03T13:14:54.833Z,1.98
2023-03-03T13:17:32.546Z,1.30
2023-03-03T13:20:08.819Z,1.63
2023-03-03T13:22:41.714Z,1.40
2023-03-03T13:25:34.487Z,1.35
2023-03-03T13:28:17.256Z,0.80
2023-03-03T13:30:49.133Z,0.80
2023-03-03T13:33:29.038Z,0.77
2023-03-03T13:36:01.783Z,1.10
2023-03-03T13:38:33.997Z,0.68
2023-03-03T13:41:21.330Z,0.88
2023-03-03T13:43:52.321Z,0.80
2023-03-03T13:46:32.341Z,0.95
2023-03-03T13:49:26.333Z,0.80
2023-03-03T13:52:01.687Z,0.50
2023-03-03T13:55:11.850Z,0.80
2023-03-03T13:57:58.651Z,0.38
2023-03-03T14:00:30.266Z,0.70
2023-03-03T14:03:11.444Z,0.80
2023-03-03T14:06:02.166Z,0.30
2023-03-03T14:08:50.663Z,0.22
2023-03-03T14:11:21.914Z,0.52
2023-03-03T14:14:15.075Z,0.57
2023-03-03T14:16:57.282Z,0.82
2023-03-03T14:19:30.929Z,0.65
2023-03-03T14:22:04.596Z,0.60
2023-03-03T14:24:31.755Z,0.73
2023-03-03T14:27:00.129Z,0.90
2023-03-03T14:29:28.734Z,1.30
2023-03-03T14:32:20.254Z,0.68
2023-03-03T14:35:01.574Z,0.55
2023-03-03T14:37:45.472Z,0.52
2023-03-03T14:40:17.921Z,0.75
2023-03-03T14:42:56.918Z,0.60
2023-03-03T14:45:38.198Z,0.65
2023-03-03T14:48:26.318Z,0.40
2023-03-03T14:51:16.144Z,1.10
2023-03-03T14:53:45.352Z,0.22
2023-03-03T14:56:24.885Z,0.90
2023-03-03T14:58:54.349Z,0.30
2023-03-03T15:01:31.187Z,0.90
2023-03-03T15:03:58.797Z,1.27
2023-03-03T15:06:50.286Z,0.80
2023-03-03T15:09:35.862Z,1.00
2023-03-03T15:12:33.038Z,1.30
2023-03-03T15:15:05.530Z,1.00
2023-03-03T15:17:39.296Z,0.82
2023-03-03T15:20:37.133Z,0.82
2023-03-03T15:23:31.085Z,0.63
2023-03-03T15:26:18.886Z,0.98
2023-03-03T15:29:11.907Z,0.75
2023-03-03T15:31:55.520Z,0.82
2023-03-03T15:34:48.821Z,0.88
2023-03-03T15:37:30.897Z,1.33
2023-03-03T15:40:16.586Z,0.82
2023-03-03T15:43:10.216Z,1.05
2023-03-03T15:46:02.438Z,0.63
2023-03-03T15:48:36.387Z,0.80
2023-03-03T15:51:08.568Z,0.90
2023-03-03T15:54:02.952Z,1.00
2023-03-03T15:56:47.918Z,1.33
2023-03-03T15:59:44.922Z,0.63
2023-03-03T16:02:25.940Z,1.00
2023-03-03T16:05:05.832Z,1.05
2023-03-03T16:07:51.012Z,1.23
2023-03-03T16:10:37.198Z,1.27
2023-03-03T16:13:27.795Z,1.58
2023-03-03T16:16:20.333Z,1.45
2023-03-03T16:19:06.239Z,2.05
2023-03-03T16:21:51.626Z,1.02
2023-03-03T16:24:42.349Z,2.42
2023-03-03T16:27:43.130Z,1.10
2023-03-03T16:30:59.492Z,1.67
2023-03-03T16:33:37.812Z,1.10
2023-03-03T16:36:31.384Z,1.52
2023-03-03T16:39:20.038Z,1.13
2023-03-03T16:42:02.304Z,1.33
2023-03-03T16:44:53.906Z,1.52
2023-03-03T16:47:37.069Z,1.20
2023-03-03T16:50:24.046Z,0.60
2023-03-03T16:53:05.779Z,1.45
2023-03-03T16:55:42.820Z,1.15
2023-03-03T16:58:28.301Z,1.38
2023-03-03T17:01:06.642Z,0.70
2023-03-03T17:03:52.085Z,1.05
2023-03-03T17:06:34.331Z,0.85
2023-03-03T17:09:08.299Z,0.95
2023-03-03T17:11:48.839Z,0.98
2023-03-03T17:15:05.146Z,1.50
2023-03-03T17:17:46.987Z,1.73
2023-03-03T17:20:45.996Z,1.48
2023-03-03T17:23:52.365Z,1.15
2023-03-03T17:27:08.518Z,1.63
2023-03-03T17:30:02.940Z,2.28
2023-03-03T17:32:47.126Z,1.00
2023-03-03T17:35:33.433Z,1.70
2023-03-03T17:38:41.974Z,1.17
2023-03-03T17:41:16.072Z,0.73
2023-03-03T17:44:05.805Z,1.27
2023-03-03T17:46:54.074Z,2.25
2023-03-03T17:49:28.482Z,1.73
2023-03-03T17:52:24.571Z,1.42
2023-03-03T17:55:09.259Z,1.10
2023-03-03T17:57:36.309Z,1.17
2023-03-03T18:00:30.825Z,1.20
2023-03-03T18:03:36.037Z,1.70
2023-03-03T18:06:20.623Z,1.33
2023-03-03T18:09:24.842Z,1.23
2023-03-03T18:12:12.613Z,2.63
2023-03-03T18:15:03.761Z,1.17
2023-03-03T18:17:58.868Z,1.45
2023-03-03T18:20:40.969Z,1.02
2023-03-03T18:23:29.928Z,1.88
2023-03-03T18:26:10.925Z,2.08
2023-03-03T18:28:44.664Z,1.67
2023-03-03T18:31:26.023Z,1.65
2023-03-03T18:34:09.226Z,1.83
2023-03-03T18:36:39.646Z,1.73
2023-03-03T18:39:14.244Z,2.05
2023-03-03T18:42:11.133Z,0.88
2023-03-03T18:44:37.960Z,1.45
2023-03-03T18:47:04.768Z,0.95
2023-03-03T18:50:17.850Z,1.25
2023-03-03T18:53:17.834Z,2.90
2023-03-03T18:55:48.759Z,1.23
2023-03-03T18:58:15.288Z,1.48
2023-03-03T19:00:54.852Z,1.45
2023-03-03T19:03:46.952Z,1.08
2023-03-03T19:06:29.923Z,0.90
2023-03-03T19:08:57.865Z,1.48
2023-03-03T19:11:55.430Z,1.80
2023-03-03T19:14:26.384Z,1.17
2023-03-03T19:16:54.480Z,1.63
2023-03-03T19:19:24.733Z,1.23
2023-03-03T19:22:21.091Z,0.70
2023-03-03T19:25:28.184Z,2.30
2023-03-03T19:28:15.596Z,1.00
2023-03-03T19:30:51.246Z,0.90
2023-03-03T19:33:35.719Z,1.48
2023-03-03T19:36:08.357Z,1.48
2023-03-03T19:38:50.320Z,2.00
2023-03-03T19:41:22.310Z,1.35
2023-03-03T19:44:16.675Z,1.55
2023-03-03T19:47:06.225Z,1.35
2023-03-03T19:49:43.203Z,2.00
2023-03-03T19:52:28.720Z,0.82
2023-03-03T19:55:28.173Z,1.33
2023-03-03T19:58:22.540Z,1.33
2023-03-03T20:01:21.870Z,1.20
2023-03-03T20:04:09.528Z,2.53
2023-03-03T20:06:57.801Z,1.55
2023-03-03T20:09:49.158Z,1.38
2023-03-03T20:12:34.129Z,2.47
2023-03-03T20:15:13.825Z,0.88
2023-03-03T20:17:54.386Z,1.25
2023-03-03T20:20:35.653Z,1.75
2023-03-03T20:23:43.819Z,1.45
2023-03-03T20:26:28.929Z,1.13
2023-03-03T20:29:19.818Z,1.48
2023-03-03T20:31:49.173Z,2.47
2023-03-03T20:34:48.060Z,2.30
2023-03-03T20:37:26.559Z,1.55
2023-03-03T20:40:06.486Z,2.40
2023-03-03T20:43:02.996Z,1.75
2023-03-03T20:45:56.570Z,1.45
2023-03-03T20:49:04.976Z,2.05
2023-03-03T20:51:43.163Z,1.63
2023-03-03T20:54:28.080Z,1.45
2023-03-03T20:57:24.278Z,1.90
2023-03-03T21:00:00.629Z,1.88
2023-03-03T21:02:38.449Z,1.17
2023-03-03T21:05:10.539Z,2.05
2023-03-03T21:07:37.502Z,1.30
2023-03-03T21:10:23.876Z,1.67
2023-03-03T21:12:55.100Z,1.73
2023-03-03T21:15:31.356Z,1.48
2023-03-03T21:17:58.937Z,1.15
2023-03-03T21:20:29.938Z,2.03
2023-03-03T21:22:58.570Z,1.35
2023-03-03T21:25:42.698Z,2.83
2023-03-03T21:28:30.104Z,1.58
2023-03-03T21:31:04.887Z,1.02
2023-03-03T21:33:51.619Z,2.00
2023-03-03T21:36:36.676Z,1.25
2023-03-03T21:39:21.420Z,1.08
2023-03-03T21:42:01.342Z,0.70
2023-03-03T21:44:41.893Z,1.02
2023-03-03T21:47:11.143Z,0.73
2023-03-03T21:49:42.532Z,2.00
2023-03-03T21:52:11.458Z,1.05
2023-03-03T21:54:38.571Z,2.15
2023-03-03T21:57:05.497Z,1.17
2023-03-03T21:59:33.287Z,0.90
2023-03-03T22:01:59.851Z,1.33
2023-03-03T22:04:26.564Z,0.95
2023-03-03T22:06:53.134Z,1.02
2023-03-03T22:09:20.185Z,0.85
2023-03-03T22:11:46.970Z,0.82
2023-03-03T22:14:13.820Z,0.95
2023-03-03T22:16:40.555Z,0.45
2023-03-03T22:19:09.129Z,1.33
2023-03-03T22:21:37.243Z,1.00
2023-03-03T22:24:04.385Z,0.88
2023-03-03T22:26:31.366Z,1.40
2023-03-03T22:28:57.916Z,0.63
2023-03-03T22:31:24.545Z,1.05
2023-03-03T22:33:51.182Z,0.50
2023-03-03T22:36:18.905Z,1.15
2023-03-03T22:38:46.991Z,2.30
2023-03-03T22:41:13.810Z,1.90
2023-03-03T22:43:40.536Z,1.05
2023-03-03T22:46:07.356Z,0.82
2023-03-03T22:48:34.071Z,0.80
2023-03-03T22:51:00.623Z,1.02
2023-03-03T22:53:27.686Z,1.00
2023-03-03T22:55:54.465Z,2.80
2023-03-03T22:58:21.600Z,1.27
2023-03-03T23:00:48.712Z,1.33
2023-03-03T23:03:15.523Z,1.02
2023-03-03T23:05:43.412Z,1.77
2023-03-03T23:08:13.384Z,1.20
2023-03-03T23:10:40.531Z,1.67
2023-03-03T23:13:08.117Z,0.90
2023-03-03T23:15:35.540Z,1.27
2023-03-03T23:18:02.439Z,1.42
2023-03-03T23:20:31.484Z,1.70
2023-03-03T23:23:00.389Z,1.80
2023-03-03T23:25:28.550Z,1.05
2023-03-03T23:27:55.821Z,1.50
2023-03-03T23:30:23.657Z,1.27
2023-03-03T23:32:50.696Z,1.67
2023-03-03T23:35:18.483Z,1.77
2023-03-03T23:37:45.907Z,1.50
2023-03-03T23:40:14.748Z,1.17
2023-03-03T23:42:41.393Z,1.10
2023-03-03T23:45:09.493Z,1.52
2023-03-03T23:47:36.294Z,1.02
2023-03-03T23:50:03.299Z,1.20
2023-03-03T23:52:29.891Z,1.13
2023-03-03T23:54:56.705Z,1.40
2023-03-03T23:57:23.673Z,0.82
2023-03-03T23:59:50.310Z,0.60
